Terminal Aerodrome Forecast
Issued by NWS Louisville, KY

Home | Current Version | Previous Version | Text Only | Print | Product List | Glossary On
Versions: 1 2 3 4 5 6 7 8 9 10 11 12 13 14
303
FTUS43 KLMK 251120
TAFBWG
TAF
KBWG 251120Z 2512/2612 20006KT P6SM -SHRA BKN060
     FM251600 21011G18KT P6SM SCT060 BKN250
     FM252300 19006KT P6SM SCT080 BKN250=

USA.gov is the U.S. government's official web portal to all federal, state and local government web resources and services.